createdAt,value
2017-03-25T00:00:55.851Z,1027.12
2017-03-25T00:01:55.870Z,1027.1
2017-03-25T00:02:55.888Z,1027.06
2017-03-25T00:03:55.905Z,1027.08
2017-03-25T00:04:55.924Z,1027.05
2017-03-25T00:05:55.942Z,1027.06
2017-03-25T00:06:55.960Z,1027.07
2017-03-25T00:07:55.978Z,1027.15
2017-03-25T00:09:56.014Z,1027.08
2017-03-25T00:10:56.033Z,1027.07
2017-03-25T00:11:56.050Z,1027.08
2017-03-25T00:12:56.068Z,1027.07
2017-03-25T00:13:56.086Z,1027.06
2017-03-25T00:14:56.103Z,1027.06
2017-03-25T00:15:56.122Z,1027.07
2017-03-25T00:16:56.140Z,1027.04
2017-03-25T00:17:56.158Z,1027.05
2017-03-25T00:18:56.175Z,1027.06
2017-03-25T00:19:56.194Z,1027.04
2017-03-25T00:20:56.212Z,1027.04
2017-03-25T00:21:56.230Z,1027.1
2017-03-25T00:22:56.248Z,1027.09
2017-03-25T00:24:56.286Z,1027.13
2017-03-25T00:25:56.302Z,1027.13
2017-03-25T00:26:56.319Z,1027.15
2017-03-25T00:27:56.338Z,1027.17
2017-03-25T00:28:56.356Z,1027.17
2017-03-25T00:29:56.373Z,1027.15
2017-03-25T00:30:56.391Z,1027.15
2017-03-25T00:31:56.409Z,1027.14
2017-03-25T00:32:56.426Z,1027.14
2017-03-25T00:33:56.444Z,1027.11
2017-03-25T00:34:56.462Z,1027.09
2017-03-25T00:35:56.481Z,1027.11
2017-03-25T00:36:56.498Z,1027.07
2017-03-25T00:37:56.516Z,1027.13
2017-03-25T00:38:56.534Z,1027.12
2017-03-25T00:39:56.552Z,1027.08
2017-03-25T00:40:56.570Z,1027.09
2017-03-25T00:41:56.587Z,1027.08
2017-03-25T00:42:56.605Z,1027.04
2017-03-25T00:43:56.622Z,1027.05
2017-03-25T00:44:56.640Z,1027.05
2017-03-25T00:45:56.658Z,1027.07
2017-03-25T00:46:56.676Z,1027.05
2017-03-25T00:47:56.693Z,1027.07
2017-03-25T00:48:56.712Z,1027.05
2017-03-25T00:49:56.730Z,1027.02
2017-03-25T00:50:56.748Z,1026.98
2017-03-25T00:51:56.765Z,1027.02
2017-03-25T00:52:56.786Z,1027.01
2017-03-25T00:53:56.800Z,1026.99
2017-03-25T00:54:56.818Z,1026.96
2017-03-25T00:56:56.853Z,1026.95
2017-03-25T00:57:56.871Z,1026.86
2017-03-25T00:58:56.888Z,1026.89
2017-03-25T00:59:56.906Z,1026.87
2017-03-25T01:00:56.924Z,1026.81
2017-03-25T01:01:56.942Z,1026.88
2017-03-25T01:02:56.959Z,1026.84
2017-03-25T01:03:56.977Z,1026.79
2017-03-25T01:04:56.995Z,1026.86
2017-03-25T01:05:57.012Z,1026.83
2017-03-25T01:06:57.030Z,1026.85
2017-03-25T01:07:57.047Z,1026.87
2017-03-25T01:08:57.066Z,1026.9
2017-03-25T01:09:57.082Z,1026.88
2017-03-25T01:10:57.100Z,1026.85
2017-03-25T01:12:57.136Z,1026.82
2017-03-25T01:13:57.153Z,1026.79
2017-03-25T01:14:57.171Z,1026.8
2017-03-25T01:15:57.189Z,1026.78
2017-03-25T01:16:57.206Z,1026.79
2017-03-25T01:17:57.223Z,1026.79
2017-03-25T01:18:57.241Z,1026.76
2017-03-25T01:19:57.260Z,1026.77
2017-03-25T01:20:57.276Z,1026.78
2017-03-25T01:21:57.294Z,1026.76
2017-03-25T01:22:57.312Z,1026.73
2017-03-25T01:23:57.330Z,1026.68
2017-03-25T01:24:57.346Z,1026.67
2017-03-25T01:25:57.364Z,1026.7
2017-03-25T01:26:57.382Z,1026.63
2017-03-25T01:28:57.417Z,1026.56
2017-03-25T01:29:57.437Z,1026.56
2017-03-25T01:30:57.452Z,1026.54
2017-03-25T01:31:57.469Z,1026.54
2017-03-25T01:32:57.487Z,1026.54
2017-03-25T01:33:57.504Z,1026.55
2017-03-25T01:34:57.529Z,1026.53
2017-03-25T01:35:57.539Z,1026.49
2017-03-25T01:36:57.562Z,1026.51
2017-03-25T01:37:57.574Z,1026.47
2017-03-25T01:38:57.792Z,1026.45
2017-03-25T01:39:57.609Z,1026.45
2017-03-25T01:40:57.626Z,1026.46
2017-03-25T01:41:57.645Z,1026.4
2017-03-25T01:42:57.661Z,1026.41
2017-03-25T01:44:57.696Z,1026.4
2017-03-25T01:45:57.714Z,1026.41
2017-03-25T01:46:57.731Z,1026.41
2017-03-25T01:47:57.748Z,1026.44
2017-03-25T01:48:57.766Z,1026.41
2017-03-25T01:49:57.783Z,1026.38
2017-03-25T01:50:57.800Z,1026.44
2017-03-25T01:51:57.819Z,1026.45
2017-03-25T01:52:57.836Z,1026.46
2017-03-25T01:53:57.852Z,1026.48
2017-03-25T01:54:57.870Z,1026.45
2017-03-25T01:55:57.888Z,1026.45
2017-03-25T01:56:57.906Z,1026.48
2017-03-25T01:57:57.923Z,1026.44
2017-03-25T01:59:57.963Z,1026.46
2017-03-25T02:00:57.975Z,1026.42
2017-03-25T02:01:57.993Z,1026.4
2017-03-25T02:02:58.010Z,1026.4
2017-03-25T02:03:58.028Z,1026.36
2017-03-25T02:04:58.044Z,1026.37
2017-03-25T02:05:58.063Z,1026.34
2017-03-25T02:06:58.080Z,1026.3
2017-03-25T02:07:58.097Z,1026.31
2017-03-25T02:08:58.114Z,1026.27
2017-03-25T02:09:58.131Z,1026.2
2017-03-25T02:10:58.149Z,1026.21
2017-03-25T02:11:58.166Z,1026.23
2017-03-25T02:12:58.184Z,1026.26
2017-03-25T02:13:58.201Z,1026.25
2017-03-25T02:14:58.219Z,1026.23
2017-03-25T02:15:58.235Z,1026.24
2017-03-25T02:16:58.254Z,1026.22
2017-03-25T02:17:58.271Z,1026.2
2017-03-25T02:18:58.287Z,1026.16
2017-03-25T02:19:58.309Z,1026.13
2017-03-25T02:20:58.323Z,1026.14
2017-03-25T02:21:58.344Z,1026.13
2017-03-25T02:22:58.356Z,1026.12
2017-03-25T02:23:58.374Z,1026.11
2017-03-25T02:24:58.392Z,1026.17
2017-03-25T02:25:58.411Z,1026.14
2017-03-25T02:26:58.426Z,1026.18
2017-03-25T02:27:58.483Z,1026.15
2017-03-25T02:28:58.461Z,1026.14
2017-03-25T02:29:58.478Z,1026.12
2017-03-25T02:31:58.513Z,1026.13
2017-03-25T02:32:58.530Z,1026.15
2017-03-25T02:33:58.546Z,1026.14
2017-03-25T02:34:58.564Z,1026.16
2017-03-25T02:35:58.582Z,1026.18
2017-03-25T02:36:58.599Z,1026.19
2017-03-25T02:37:58.615Z,1026.21
2017-03-25T02:38:58.633Z,1026.18
2017-03-25T02:39:58.650Z,1026.15
2017-03-25T02:40:58.667Z,1026.17
2017-03-25T02:41:58.684Z,1026.13
2017-03-25T02:42:58.703Z,1026.17
2017-03-25T02:43:58.719Z,1026.17
2017-03-25T02:44:58.735Z,1026.18
2017-03-25T02:45:58.753Z,1026.15
2017-03-25T02:47:58.790Z,1026.12
2017-03-25T02:48:58.805Z,1026.11
2017-03-25T02:49:58.822Z,1026.08
2017-03-25T02:50:58.840Z,1026.09
2017-03-25T02:51:58.857Z,1026.03
2017-03-25T02:52:58.874Z,1026.04
2017-03-25T02:53:58.892Z,1026.03
2017-03-25T02:54:58.909Z,1025.99
2017-03-25T02:55:58.925Z,1026
2017-03-25T02:56:58.943Z,1025.98
2017-03-25T02:57:58.961Z,1025.94
2017-03-25T02:58:58.978Z,1025.95
2017-03-25T02:59:58.994Z,1025.97
2017-03-25T03:00:59.011Z,1025.96
2017-03-25T03:01:59.030Z,1025.95
2017-03-25T03:03:59.063Z,1025.94
2017-03-25T03:04:59.081Z,1025.97
2017-03-25T03:05:59.098Z,1025.93
2017-03-25T03:06:59.114Z,1025.92
2017-03-25T03:07:59.133Z,1025.87
2017-03-25T03:08:59.153Z,1025.89
2017-03-25T03:09:59.167Z,1025.88
2017-03-25T03:10:59.183Z,1025.87
2017-03-25T03:11:59.201Z,1025.87
2017-03-25T03:12:59.218Z,1025.84
2017-03-25T03:13:59.235Z,1025.79
2017-03-25T03:14:59.253Z,1025.77
2017-03-25T03:15:59.269Z,1025.77
2017-03-25T03:16:59.287Z,1025.82
2017-03-25T03:17:59.304Z,1025.81
2017-03-25T03:19:59.340Z,1025.84
2017-03-25T03:20:59.356Z,1025.79
2017-03-25T03:21:59.373Z,1025.77
2017-03-25T03:22:59.390Z,1025.8
2017-03-25T03:23:59.408Z,1025.79
2017-03-25T03:24:59.424Z,1025.77
2017-03-25T03:25:59.441Z,1025.77
2017-03-25T03:26:59.459Z,1025.75
2017-03-25T03:27:59.477Z,1025.74
2017-03-25T03:28:59.493Z,1025.73
2017-03-25T03:29:59.510Z,1025.74
2017-03-25T03:30:59.527Z,1025.71
2017-03-25T03:31:59.545Z,1025.68
2017-03-25T03:32:59.563Z,1025.64
2017-03-25T03:34:59.598Z,1025.63
2017-03-25T03:35:59.614Z,1025.66
2017-03-25T03:36:59.632Z,1025.65
2017-03-25T03:37:59.649Z,1025.66
2017-03-25T03:38:59.667Z,1025.63
2017-03-25T03:39:59.683Z,1025.66
2017-03-25T03:40:59.700Z,1025.69
2017-03-25T03:41:59.719Z,1025.68
2017-03-25T03:42:59.735Z,1025.68
2017-03-25T03:43:59.752Z,1025.66
2017-03-25T03:44:59.770Z,1025.68
2017-03-25T03:45:59.792Z,1025.66
2017-03-25T03:46:59.805Z,1025.62
2017-03-25T03:47:59.821Z,1025.62
2017-03-25T03:48:59.839Z,1025.6
2017-03-25T03:49:59.858Z,1025.63
2017-03-25T03:50:59.872Z,1025.63
2017-03-25T03:51:59.890Z,1025.6
2017-03-25T03:52:59.909Z,1025.59
2017-03-25T03:53:59.924Z,1025.59
2017-03-25T03:54:59.941Z,1025.57
2017-03-25T03:55:59.958Z,1025.59
2017-03-25T03:56:59.976Z,1025.59
2017-03-25T03:57:59.993Z,1025.57
2017-03-25T03:59:00.010Z,1025.57
2017-03-25T04:00:00.028Z,1025.6
2017-03-25T04:01:00.045Z,1025.58
2017-03-25T04:02:00.062Z,1025.56
2017-03-25T04:03:00.080Z,1025.57
2017-03-25T04:04:00.096Z,1025.53
2017-03-25T04:05:00.113Z,1025.51
2017-03-25T04:07:00.148Z,1025.52
2017-03-25T04:08:00.165Z,1025.48
2017-03-25T04:09:00.182Z,1025.48
2017-03-25T04:10:00.199Z,1025.52
2017-03-25T04:11:00.217Z,1025.49
2017-03-25T04:12:00.234Z,1025.47
2017-03-25T04:13:00.251Z,1025.45
2017-03-25T04:14:00.268Z,1025.39
2017-03-25T04:15:00.286Z,1025.37
2017-03-25T04:16:00.302Z,1025.38
2017-03-25T04:17:00.320Z,1025.38
2017-03-25T04:18:00.637Z,1025.41
2017-03-25T04:19:00.354Z,1025.44
2017-03-25T04:20:00.371Z,1025.41
2017-03-25T04:21:00.389Z,1025.42
2017-03-25T04:23:00.423Z,1025.37
2017-03-25T04:24:00.440Z,1025.37
2017-03-25T04:25:00.457Z,1025.37
2017-03-25T04:26:00.475Z,1025.37
2017-03-25T04:27:00.491Z,1025.36
2017-03-25T04:28:00.508Z,1025.39
2017-03-25T04:29:00.526Z,1025.37
2017-03-25T04:30:00.543Z,1025.37
2017-03-25T04:31:00.560Z,1025.36
2017-03-25T04:32:00.577Z,1025.38
2017-03-25T04:33:00.595Z,1025.36
2017-03-25T04:34:00.613Z,1025.41
2017-03-25T04:35:00.629Z,1025.4
2017-03-25T04:36:00.646Z,1025.4
2017-03-25T04:37:00.664Z,1025.39
2017-03-25T04:39:00.699Z,1025.38
2017-03-25T04:40:00.715Z,1025.41
2017-03-25T04:41:00.733Z,1025.41
2017-03-25T04:42:00.749Z,1025.43
2017-03-25T04:43:00.767Z,1025.39
2017-03-25T04:44:00.788Z,1025.41
2017-03-25T04:45:00.801Z,1025.47
2017-03-25T04:46:00.818Z,1025.41
2017-03-25T04:47:00.836Z,1025.4
2017-03-25T04:48:00.853Z,1025.43
2017-03-25T04:49:00.869Z,1025.43
2017-03-25T04:50:00.887Z,1025.43
2017-03-25T04:51:00.904Z,1025.46
2017-03-25T04:52:00.921Z,1025.45
2017-03-25T04:53:00.938Z,1025.45
2017-03-25T04:55:00.973Z,1025.42
2017-03-25T04:56:00.992Z,1025.41
2017-03-25T04:57:01.008Z,1025.44
2017-03-25T04:58:01.024Z,1025.41
2017-03-25T04:59:01.042Z,1025.39
2017-03-25T05:00:01.059Z,1025.39
2017-03-25T05:01:01.078Z,1025.38
2017-03-25T05:02:01.093Z,1025.37
2017-03-25T05:03:01.111Z,1025.39
2017-03-25T05:04:01.127Z,1025.38
2017-03-25T05:05:01.145Z,1025.43
2017-03-25T05:06:01.162Z,1025.42
2017-03-25T05:07:01.179Z,1025.47
2017-03-25T05:08:01.197Z,1025.48
2017-03-25T05:10:01.233Z,1025.47
2017-03-25T05:11:01.249Z,1025.44
2017-03-25T05:12:01.266Z,1025.46
2017-03-25T05:13:01.283Z,1025.45
2017-03-25T05:14:01.301Z,1025.45
2017-03-25T05:15:01.317Z,1025.45
2017-03-25T05:16:01.336Z,1025.44
2017-03-25T05:17:01.352Z,1025.44
2017-03-25T05:18:01.369Z,1025.42
2017-03-25T05:19:01.387Z,1025.43
2017-03-25T05:20:01.405Z,1025.45
2017-03-25T05:21:01.422Z,1025.49
2017-03-25T05:22:01.439Z,1025.49
2017-03-25T05:23:01.456Z,1025.45
2017-03-25T05:24:01.473Z,1025.47
2017-03-25T05:25:01.491Z,1025.46
2017-03-25T05:26:01.516Z,1025.48
2017-03-25T05:27:01.530Z,1025.51
2017-03-25T05:28:01.542Z,1025.47
2017-03-25T05:29:01.559Z,1025.47
2017-03-25T05:30:01.577Z,1025.49
2017-03-25T05:31:01.594Z,1025.45
2017-03-25T05:32:01.612Z,1025.43
2017-03-25T05:33:01.628Z,1025.43
2017-03-25T05:34:01.646Z,1025.46
2017-03-25T05:35:01.664Z,1025.38
2017-03-25T05:36:01.682Z,1025.4
2017-03-25T05:37:01.698Z,1025.42
2017-03-25T05:38:01.716Z,1025.42
2017-03-25T05:39:01.784Z,1025.42
2017-03-25T05:40:01.751Z,1025.41
2017-03-25T05:42:01.786Z,1025.39
2017-03-25T05:43:01.804Z,1025.42
2017-03-25T05:44:01.820Z,1025.39
2017-03-25T05:45:01.854Z,1025.41
2017-03-25T05:46:01.857Z,1025.43
2017-03-25T05:47:01.874Z,1025.38
2017-03-25T05:48:01.891Z,1025.43
2017-03-25T05:49:01.908Z,1025.37
2017-03-25T05:50:01.926Z,1025.4
2017-03-25T05:51:01.943Z,1025.42
2017-03-25T05:52:01.961Z,1025.38
2017-03-25T05:53:01.979Z,1025.4
2017-03-25T05:54:01.997Z,1025.38
2017-03-25T05:55:02.014Z,1025.39
2017-03-25T05:56:02.032Z,1025.38
2017-03-25T05:58:02.068Z,1025.37
2017-03-25T05:59:02.084Z,1025.31
2017-03-25T06:00:02.103Z,1025.35
2017-03-25T06:01:02.120Z,1025.32
2017-03-25T06:02:02.138Z,1025.3
2017-03-25T06:03:02.156Z,1025.31
2017-03-25T06:04:02.174Z,1025.32
2017-03-25T06:05:02.191Z,1025.3
2017-03-25T06:06:02.209Z,1025.3
2017-03-25T06:07:02.227Z,1025.31
2017-03-25T06:08:02.246Z,1025.28
2017-03-25T06:09:02.265Z,1025.27
2017-03-25T06:10:02.281Z,1025.28
2017-03-25T06:11:02.298Z,1025.28
2017-03-25T06:12:02.318Z,1025.3
2017-03-25T06:14:02.353Z,1025.28
2017-03-25T06:15:02.371Z,1025.29
2017-03-25T06:16:02.390Z,1025.29
2017-03-25T06:17:02.407Z,1025.28
2017-03-25T06:18:02.426Z,1025.31
2017-03-25T06:19:02.445Z,1025.3
2017-03-25T06:20:02.462Z,1025.35
2017-03-25T06:21:02.480Z,1025.36
2017-03-25T06:22:02.498Z,1025.3
2017-03-25T06:23:02.517Z,1025.31
2017-03-25T06:24:02.534Z,1025.29
2017-03-25T06:25:02.553Z,1025.29
2017-03-25T06:26:02.572Z,1025.34
2017-03-25T06:27:02.591Z,1025.33
2017-03-25T06:28:02.609Z,1025.37
2017-03-25T06:30:02.646Z,1025.4
2017-03-25T06:31:02.668Z,1025.42
2017-03-25T06:32:02.683Z,1025.38
2017-03-25T06:33:02.703Z,1025.36
2017-03-25T06:34:02.721Z,1025.39
2017-03-25T06:35:02.743Z,1025.39
2017-03-25T06:36:02.759Z,1025.41
2017-03-25T06:37:02.778Z,1025.43
2017-03-25T06:38:02.797Z,1025.46
2017-03-25T06:39:02.816Z,1025.52
2017-03-25T06:40:02.836Z,1025.45
2017-03-25T06:41:02.855Z,1025.49
2017-03-25T06:42:02.874Z,1025.48
2017-03-25T06:43:02.895Z,1025.5
2017-03-25T06:45:02.934Z,1025.46
2017-03-25T06:46:02.953Z,1025.49
2017-03-25T06:47:02.973Z,1025.53
2017-03-25T06:48:02.992Z,1025.51
2017-03-25T06:49:03.013Z,1025.52
2017-03-25T06:50:03.032Z,1025.5
2017-03-25T06:51:03.052Z,1025.49
2017-03-25T06:52:03.073Z,1025.49
2017-03-25T06:53:03.092Z,1025.46
2017-03-25T06:54:03.112Z,1025.49
2017-03-25T06:55:03.131Z,1025.47
2017-03-25T06:56:03.199Z,1025.49
2017-03-25T06:57:03.171Z,1025.5
2017-03-25T06:58:03.191Z,1025.47
2017-03-25T06:59:03.211Z,1025.51
2017-03-25T07:00:03.230Z,1025.44
2017-03-25T07:01:03.250Z,1025.46
2017-03-25T07:02:03.271Z,1025.45
2017-03-25T07:03:03.292Z,1025.47
2017-03-25T07:04:03.310Z,1025.47
2017-03-25T07:05:03.331Z,1025.5
2017-03-25T07:06:03.351Z,1025.52
2017-03-25T07:07:03.372Z,1025.5
2017-03-25T07:08:03.391Z,1025.45
2017-03-25T07:09:03.411Z,1025.53
2017-03-25T07:10:03.431Z,1025.51
2017-03-25T07:11:03.454Z,1025.52
2017-03-25T07:12:03.471Z,1025.58
2017-03-25T07:13:03.492Z,1025.58
2017-03-25T07:14:03.512Z,1025.5
2017-03-25T07:15:03.531Z,1025.5
2017-03-25T07:17:03.573Z,1025.55
2017-03-25T07:18:03.594Z,1025.61
2017-03-25T07:19:03.613Z,1025.57
2017-03-25T07:20:03.635Z,1025.66
2017-03-25T07:21:03.656Z,1025.65
2017-03-25T07:22:03.679Z,1025.55
2017-03-25T07:23:03.698Z,1025.6
2017-03-25T07:24:03.719Z,1025.61
2017-03-25T07:25:03.740Z,1025.63
2017-03-25T07:26:03.761Z,1025.63
2017-03-25T07:27:03.781Z,1025.66
2017-03-25T07:28:03.804Z,1025.7
2017-03-25T07:29:03.827Z,1025.61
2017-03-25T07:30:03.847Z,1025.62
2017-03-25T07:31:03.870Z,1025.62
2017-03-25T07:33:03.915Z,1025.55
2017-03-25T07:34:03.936Z,1025.54
2017-03-25T07:35:03.958Z,1025.51
2017-03-25T07:36:03.981Z,1025.48
2017-03-25T07:37:04.003Z,1025.46
2017-03-25T07:38:04.025Z,1025.48
2017-03-25T07:39:04.048Z,1025.48
2017-03-25T07:40:04.070Z,1025.47
2017-03-25T07:41:04.092Z,1025.46
2017-03-25T07:42:04.115Z,1025.45
2017-03-25T07:43:04.138Z,1025.43
2017-03-25T07:44:04.160Z,1025.43
2017-03-25T07:45:04.181Z,1025.39
2017-03-25T07:46:04.204Z,1025.47
2017-03-25T07:47:04.226Z,1025.48
2017-03-25T07:49:04.270Z,1025.42
2017-03-25T07:50:04.292Z,1025.33
2017-03-25T07:51:04.314Z,1025.38
2017-03-25T07:52:04.335Z,1025.35
2017-03-25T07:53:04.358Z,1025.34
2017-03-25T07:54:04.381Z,1025.32
2017-03-25T07:55:04.402Z,1025.35
2017-03-25T07:56:04.423Z,1025.31
2017-03-25T07:57:04.446Z,1025.35
2017-03-25T07:58:04.468Z,1025.32
2017-03-25T07:59:04.489Z,1025.27
2017-03-25T08:00:04.511Z,1025.34
2017-03-25T08:01:04.533Z,1025.32
2017-03-25T08:02:04.556Z,1025.35
2017-03-25T08:03:04.577Z,1025.35
2017-03-25T08:05:04.620Z,1025.34
2017-03-25T08:06:04.643Z,1025.31
2017-03-25T08:07:04.664Z,1025.32
2017-03-25T08:08:04.686Z,1025.31
2017-03-25T08:09:04.708Z,1025.38
2017-03-25T08:10:04.729Z,1025.38
2017-03-25T08:11:04.752Z,1025.43
2017-03-25T08:12:04.774Z,1025.42
2017-03-25T08:13:04.797Z,1025.41
2017-03-25T08:14:04.818Z,1025.38
2017-03-25T08:15:04.840Z,1025.42
2017-03-25T08:16:04.863Z,1025.41
2017-03-25T08:17:04.885Z,1025.39
2017-03-25T08:18:04.908Z,1025.37
2017-03-25T08:20:04.952Z,1025.36
2017-03-25T08:21:04.974Z,1025.39
2017-03-25T08:22:04.997Z,1025.34
2017-03-25T08:23:05.020Z,1025.35
2017-03-25T08:24:05.043Z,1025.31
2017-03-25T08:25:05.064Z,1025.27
2017-03-25T08:26:05.086Z,1025.31
2017-03-25T08:27:05.109Z,1025.27
2017-03-25T08:28:05.131Z,1025.22
2017-03-25T08:29:05.154Z,1025.26
2017-03-25T08:30:05.177Z,1025.2
2017-03-25T08:31:05.199Z,1025.2
2017-03-25T08:32:05.220Z,1025.2
2017-03-25T08:33:05.243Z,1025.19
2017-03-25T08:34:05.266Z,1025.15
2017-03-25T08:35:05.288Z,1025.12
2017-03-25T08:36:05.308Z,1025.1
2017-03-25T08:37:05.332Z,1025.16
2017-03-25T08:38:05.355Z,1025.09
2017-03-25T08:39:05.378Z,1025.09
2017-03-25T08:40:05.399Z,1025.07
2017-03-25T08:41:05.471Z,1025.07
2017-03-25T08:42:05.444Z,1025.12
2017-03-25T08:43:05.615Z,1025.08
2017-03-25T08:44:05.637Z,1025.08
2017-03-25T08:45:05.509Z,1025.05
2017-03-25T08:46:05.532Z,1025.06
2017-03-25T08:47:05.556Z,1025.09
2017-03-25T08:48:05.576Z,1025.11
2017-03-25T08:49:05.598Z,1025.13
2017-03-25T08:50:05.618Z,1025.12
2017-03-25T08:52:05.664Z,1025.05
2017-03-25T08:53:05.687Z,1025.05
2017-03-25T08:54:05.710Z,1025.05
2017-03-25T08:55:05.730Z,1025.06
2017-03-25T08:56:05.752Z,1025.11
2017-03-25T08:57:05.777Z,1025.15
2017-03-25T08:58:05.796Z,1025.09
2017-03-25T08:59:05.819Z,1025.09
2017-03-25T09:00:05.841Z,1025.1
2017-03-25T09:01:05.862Z,1025.05
2017-03-25T09:02:05.885Z,1025.09
2017-03-25T09:03:05.908Z,1025.13
2017-03-25T09:04:05.929Z,1025.12
2017-03-25T09:05:05.951Z,1025.13
2017-03-25T09:06:05.974Z,1025.11
2017-03-25T09:08:06.020Z,1025.04
2017-03-25T09:09:06.041Z,1025.02
2017-03-25T09:10:06.064Z,1025
2017-03-25T09:11:06.087Z,1024.97
2017-03-25T09:12:06.108Z,1025
2017-03-25T09:13:06.132Z,1025.01
2017-03-25T09:14:06.154Z,1025.01
2017-03-25T09:15:06.177Z,1024.95
2017-03-25T09:16:06.199Z,1024.89
2017-03-25T09:17:06.222Z,1024.96
2017-03-25T09:18:06.245Z,1024.96
2017-03-25T09:19:06.268Z,1024.93
2017-03-25T09:20:06.289Z,1025.01
2017-03-25T09:21:06.313Z,1025.06
2017-03-25T09:22:06.335Z,1024.99
2017-03-25T09:24:06.381Z,1025
2017-03-25T09:25:06.403Z,1024.99
2017-03-25T09:26:06.429Z,1024.98
2017-03-25T09:27:06.449Z,1024.95
2017-03-25T09:28:06.470Z,1024.94
2017-03-25T09:29:06.493Z,1024.98
2017-03-25T09:30:06.516Z,1024.98
2017-03-25T09:31:06.538Z,1025.01
2017-03-25T09:32:06.561Z,1024.99
2017-03-25T09:33:06.585Z,1024.97
2017-03-25T09:34:06.607Z,1025.01
2017-03-25T09:35:06.630Z,1024.99
2017-03-25T09:36:06.654Z,1025.01
2017-03-25T09:37:06.677Z,1025.03
2017-03-25T09:38:06.699Z,1025.04
2017-03-25T09:40:06.747Z,1024.99
2017-03-25T09:41:06.770Z,1024.99
2017-03-25T09:42:06.793Z,1024.99
2017-03-25T09:43:06.816Z,1024.94
2017-03-25T09:44:06.840Z,1024.94
2017-03-25T09:45:06.863Z,1024.92
2017-03-25T09:46:06.886Z,1024.86
2017-03-25T09:47:06.910Z,1024.87
2017-03-25T09:48:06.934Z,1024.83
2017-03-25T09:49:06.957Z,1024.8
2017-03-25T09:50:06.980Z,1024.81
2017-03-25T09:51:07.004Z,1024.77
2017-03-25T09:52:07.028Z,1024.77
2017-03-25T09:53:07.052Z,1024.67
2017-03-25T09:55:07.100Z,1024.63
2017-03-25T09:56:07.123Z,1024.58
2017-03-25T09:57:07.147Z,1024.59
2017-03-25T09:58:07.175Z,1024.63
2017-03-25T09:59:07.196Z,1024.63
2017-03-25T10:00:07.218Z,1024.73
2017-03-25T10:01:07.243Z,1024.68
2017-03-25T10:02:07.267Z,1024.66
2017-03-25T10:03:07.296Z,1024.71
2017-03-25T10:04:07.315Z,1024.64
2017-03-25T10:05:07.340Z,1024.64
2017-03-25T10:06:07.363Z,1024.57
2017-03-25T10:07:07.393Z,1024.6
2017-03-25T10:08:07.412Z,1024.54
2017-03-25T10:09:07.436Z,1024.57
2017-03-25T10:10:07.461Z,1024.58
2017-03-25T10:11:07.484Z,1024.6
2017-03-25T10:12:07.508Z,1024.63
2017-03-25T10:13:07.533Z,1024.6
2017-03-25T10:14:07.557Z,1024.58
2017-03-25T10:15:07.582Z,1024.65
2017-03-25T10:16:07.607Z,1024.54
2017-03-25T10:17:07.632Z,1024.46
2017-03-25T10:18:07.654Z,1024.53
2017-03-25T10:19:07.680Z,1024.5
2017-03-25T10:20:07.704Z,1024.44
2017-03-25T10:21:07.729Z,1024.49
2017-03-25T10:22:07.753Z,1024.45
2017-03-25T10:23:07.778Z,1024.43
2017-03-25T10:24:07.803Z,1024.42
2017-03-25T10:25:07.828Z,1024.47
2017-03-25T10:27:07.876Z,1024.36
2017-03-25T10:28:07.901Z,1024.31
2017-03-25T10:29:07.925Z,1024.3
2017-03-25T10:30:07.950Z,1024.21
2017-03-25T10:31:07.974Z,1024.23
2017-03-25T10:32:08.000Z,1024.24
2017-03-25T10:33:08.024Z,1024.22
2017-03-25T10:34:08.049Z,1024.24
2017-03-25T10:35:08.073Z,1024.19
2017-03-25T10:36:08.097Z,1024.2
2017-03-25T10:37:08.122Z,1024.12
2017-03-25T10:38:08.146Z,1024.08
2017-03-25T10:39:08.172Z,1024.04
2017-03-25T10:40:08.194Z,1024.06
2017-03-25T10:41:08.220Z,1024.13
2017-03-25T10:43:08.270Z,1024.07
2017-03-25T10:44:08.292Z,1024.03
2017-03-25T10:45:08.318Z,1024.02
2017-03-25T10:46:08.342Z,1024.01
2017-03-25T10:47:08.367Z,1024.02
2017-03-25T10:48:08.391Z,1023.93
2017-03-25T10:49:08.416Z,1023.99
2017-03-25T10:50:08.540Z,1024.04
2017-03-25T10:51:08.463Z,1023.99
2017-03-25T10:52:08.488Z,1023.97
2017-03-25T10:53:08.512Z,1023.92
2017-03-25T10:54:08.537Z,1023.89
2017-03-25T10:55:08.560Z,1023.86
2017-03-25T10:56:08.585Z,1023.84
2017-03-25T10:57:08.610Z,1023.88
2017-03-25T10:59:08.691Z,1023.93
2017-03-25T11:00:08.682Z,1023.9
2017-03-25T11:01:08.705Z,1023.91
2017-03-25T11:02:08.729Z,1023.78
2017-03-25T11:03:08.754Z,1023.78
2017-03-25T11:04:08.778Z,1023.72
2017-03-25T11:05:08.802Z,1023.73
2017-03-25T11:06:08.825Z,1023.7
2017-03-25T11:07:08.849Z,1023.71
2017-03-25T11:08:08.874Z,1023.79
2017-03-25T11:09:08.898Z,1023.65
2017-03-25T11:10:08.922Z,1023.71
2017-03-25T11:11:08.945Z,1023.7
2017-03-25T11:12:08.970Z,1023.65
2017-03-25T11:13:09.043Z,1023.68
2017-03-25T11:15:09.041Z,1023.69
2017-03-25T11:16:09.067Z,1023.63
2017-03-25T11:17:09.089Z,1023.61
2017-03-25T11:18:09.113Z,1023.58
2017-03-25T11:19:09.137Z,1023.54
2017-03-25T11:20:09.161Z,1023.65
2017-03-25T11:21:09.185Z,1023.56
2017-03-25T11:22:09.209Z,1023.5
2017-03-25T11:23:09.233Z,1023.44
2017-03-25T11:24:09.258Z,1023.42
2017-03-25T11:25:09.281Z,1023.43
2017-03-25T11:26:09.304Z,1023.5
2017-03-25T11:27:09.330Z,1023.44
2017-03-25T11:28:09.358Z,1023.46
2017-03-25T11:30:09.401Z,1023.45
2017-03-25T11:31:09.424Z,1023.42
2017-03-25T11:32:09.448Z,1023.38
2017-03-25T11:33:09.472Z,1023.35
2017-03-25T11:34:09.496Z,1023.36
2017-03-25T11:35:09.519Z,1023.39
2017-03-25T11:36:09.545Z,1023.33
2017-03-25T11:37:09.567Z,1023.31
2017-03-25T11:38:09.589Z,1023.26
2017-03-25T11:39:09.614Z,1023.22
2017-03-25T11:40:09.638Z,1023.23
2017-03-25T11:41:09.661Z,1023.17
2017-03-25T11:42:09.684Z,1023.12
2017-03-25T11:43:09.709Z,1023.04
2017-03-25T11:44:09.733Z,1023.04
2017-03-25T11:45:09.756Z,1023.05
2017-03-25T11:46:09.779Z,1023.08
2017-03-25T11:47:09.803Z,1023.05
2017-03-25T11:48:09.828Z,1023.01
2017-03-25T11:49:09.850Z,1023.01
2017-03-25T11:50:09.874Z,1023.05
2017-03-25T11:51:09.899Z,1023.01
2017-03-25T11:52:09.921Z,1023.08
2017-03-25T11:53:09.945Z,1022.98
2017-03-25T11:54:09.969Z,1023.06
2017-03-25T11:55:09.993Z,1022.92
2017-03-25T11:56:10.017Z,1022.88
2017-03-25T11:57:10.039Z,1022.84
2017-03-25T11:58:10.063Z,1022.86
2017-03-25T11:59:10.087Z,1022.86
2017-03-25T12:00:10.110Z,1022.87
2017-03-25T12:02:10.158Z,1022.85
2017-03-25T12:03:10.182Z,1022.92
2017-03-25T12:04:10.205Z,1022.88
2017-03-25T12:05:10.228Z,1022.91
2017-03-25T12:06:10.253Z,1022.92
2017-03-25T12:07:10.276Z,1022.81
2017-03-25T12:08:10.303Z,1022.82
2017-03-25T12:09:10.323Z,1022.67
2017-03-25T12:10:10.346Z,1022.67
2017-03-25T12:11:10.369Z,1022.73
2017-03-25T12:12:10.392Z,1022.72
2017-03-25T12:13:10.416Z,1022.79
2017-03-25T12:14:10.440Z,1022.78
2017-03-25T12:15:10.463Z,1022.78
2017-03-25T12:16:10.487Z,1022.83
2017-03-25T12:18:10.534Z,1022.8
2017-03-25T12:19:10.557Z,1022.76
2017-03-25T12:20:10.580Z,1022.75
2017-03-25T12:21:10.604Z,1022.71
2017-03-25T12:22:10.627Z,1022.71
2017-03-25T12:23:10.651Z,1022.65
2017-03-25T12:24:10.674Z,1022.62
2017-03-25T12:25:10.699Z,1022.57
2017-03-25T12:26:10.721Z,1022.55
2017-03-25T12:27:10.745Z,1022.56
2017-03-25T12:28:10.768Z,1022.54
2017-03-25T12:29:10.791Z,1022.54
2017-03-25T12:30:10.814Z,1022.49
2017-03-25T12:31:10.838Z,1022.57
2017-03-25T12:32:10.861Z,1022.53
2017-03-25T12:34:10.907Z,1022.56
2017-03-25T12:35:10.932Z,1022.58
2017-03-25T12:36:10.954Z,1022.56
2017-03-25T12:37:10.977Z,1022.59
2017-03-25T12:38:11.001Z,1022.61
2017-03-25T12:39:11.024Z,1022.64
2017-03-25T12:40:11.047Z,1022.65
2017-03-25T12:41:11.072Z,1022.5
2017-03-25T12:42:11.094Z,1022.53
2017-03-25T12:43:11.117Z,1022.5
2017-03-25T12:44:11.139Z,1022.48
2017-03-25T12:45:11.163Z,1022.46
2017-03-25T12:46:11.187Z,1022.37
2017-03-25T12:47:11.210Z,1022.29
2017-03-25T12:48:11.237Z,1022.29